This is the latest recevied weather packets stored in our database for station/object N2XP-3. If no packets are shown the sender has not sent any weather packets the latest 10 day(s).
| Time | Temp. | Humidity | Pressure | Rain* | Wind** | Luminosity | Snow |
|---|---|---|---|---|---|---|---|
| 1777820801 | 11.67° C | 47% | 1010.3 hPa | 0 mm | 0.45 m/s, 266° | - | - |
| 1777820584 | 11.67° C | 47% | 1010.3 hPa | 0 mm | 0.45 m/s, 266° | - | - |
| 1777820285 | 11.11° C | 47% | 1010.3 hPa | 0 mm | 1.79 m/s, 243° | - | - |
| 1777819982 | 11.67° C | 45% | 1010.3 hPa | 0 mm | 3.13 m/s, 134° | - | - |
| 1777819682 | 12.22° C | 46% | 1010.2 hPa | 0 mm | 1.79 m/s, 104° | - | - |
| 1777819620 | 11.67° C | 47% | 1010.3 hPa | 0 mm | 0.45 m/s, 226° | - | - |
| 1777819383 | 11.67° C | 47% | 1010.3 hPa | 0 mm | 0.45 m/s, 226° | - | - |
| 1777818780 | 12.78° C | 44% | 1010.3 hPa | 0 mm | 0.45 m/s, 155° | - | - |
| 1777818481 | 13.89° C | 44% | 1010.4 hPa | 0 mm | 0.45 m/s, 141° | - | - |
| 1777818174 | 14.44° C | 43% | 1010.3 hPa | 0 mm | 1.34 m/s, 222° | - | - |
| 1777817874 | 15° C | 41% | 1010.3 hPa | 0 mm | 1.79 m/s, 315° | - | - |
| 1777817570 | 14.44° C | 42% | 1010.3 hPa | 0 mm | 2.24 m/s, 55° | - | - |
| 1777817267 | 14.44° C | 45% | 1010.2 hPa | 0 mm | 1.79 m/s, 25° | - | - |
| 1777816667 | 13.33° C | 45% | 1010.2 hPa | 0 mm | 3.58 m/s, 97° | - | - |
| 1777816362 | 13.89° C | 44% | 1010.2 hPa | 0 mm | 2.68 m/s, 173° | - | - |
| 1777816125 | 13.89° C | 45% | 1010.3 hPa | 0 mm | 2.24 m/s, 222° | - | - |
| 1777816063 | 13.89° C | 45% | 1010.3 hPa | 0 mm | 2.24 m/s, 222° | - | - |
| 1777815764 | 14.44° C | 43% | 1010.2 hPa | 0 mm | 3.58 m/s, 84° | - | - |
| 1777815461 | 14.44° C | 45% | 1010.3 hPa | 0 mm | 2.24 m/s, 150° | - | - |
| 1777814967 | 13.33° C | 46% | 1010.4 hPa | 0 mm | 1.79 m/s, 321° | - | - |
| 1777814859 | 13.33° C | 46% | 1010.4 hPa | 0 mm | 1.79 m/s, 321° | - | - |
| 1777814606 | 12.22° C | 49% | 1010.2 hPa | 0 mm | 2.24 m/s, 198° | - | - |
| 1777814553 | 12.22° C | 49% | 1010.2 hPa | 0 mm | 2.24 m/s, 198° | - | - |
| 1777813955 | 12.22° C | 49% | 1010.2 hPa | 0 mm | 2.24 m/s, 60° | - | - |
| 1777813796 | 12.78° C | 48% | 1010.3 hPa | 0 mm | 1.79 m/s, 179° | - | - |
* Rain latest hour (hover to see other rain measurements)
** Current wind speed in m/s (hover to see current wind gust speed)